Time;durP1;ratioP1;P1;durP2;ratioP2;P2;SDS_P1;SDS_P2;PMS_P1;PMS_P2;Temp;Humidity;BMP_temperature;BMP_pressure;BME280_temperature;BME280_humidity;BME280_pressure;Samples;Min_cycle;Max_cycle;Signal;HPM_P1;HPM_P2
2023/09/15 00:01:49;;;;;;;7.88;4.90;;;;;;;;;;4995974;28;20073;-67
2023/09/15 00:04:15;;;;;;;9.00;5.13;;;;;;;;;;4989960;28;20042;-67
2023/09/15 00:06:40;;;;;;;9.63;4.70;;;;;;;;;;4987050;28;20064;-67
2023/09/15 00:09:14;;;;;;;10.95;5.45;;;;;;;;;;4985554;28;20057;-67
2023/09/15 00:11:40;;;;;;;7.50;4.97;;;;;;;;;;4998228;28;20033;-67
2023/09/15 00:14:12;;;;;;;7.25;4.70;;;;;;;;;;4982432;28;20030;-67
2023/09/15 00:16:39;;;;;;;7.97;4.45;;;;;;;;;;4998647;28;20127;-67
2023/09/15 00:19:06;;;;;;;7.57;4.82;;;;;;;;;;5000132;28;20579;-67
2023/09/15 00:21:32;;;;;;;8.40;5.28;;;;;;;;;;4997696;28;20796;-67
2023/09/15 00:23:58;;;;;;;12.80;6.00;;;;;;;;;;4994907;28;20084;-67
2023/09/15 00:26:24;;;;;;;10.65;5.25;;;;;;;;;;5002599;28;20496;-67
2023/09/15 00:28:50;;;;;;;6.80;4.70;;;;;;;;;;4995332;28;20411;-67
2023/09/15 00:31:15;;;;;;;7.68;5.25;;;;;;;;;;4995193;28;20033;-67
2023/09/15 00:33:40;;;;;;;8.55;5.03;;;;;;;;;;4997930;28;20034;-67
2023/09/15 00:36:06;;;;;;;8.77;5.03;;;;;;;;;;4998882;28;20038;-67
2023/09/15 00:38:32;;;;;;;10.55;4.97;;;;;;;;;;4995924;28;20834;-67
2023/09/15 00:40:57;;;;;;;7.95;5.30;;;;;;;;;;4990612;28;20046;-67
2023/09/15 00:43:23;;;;;;;9.98;5.50;;;;;;;;;;4994095;28;20057;-67
2023/09/15 00:45:49;;;;;;;8.60;5.43;;;;;;;;;;4997846;28;20042;-67
2023/09/15 00:48:14;;;;;;;8.07;5.22;;;;;;;;;;4992683;28;20755;-67
2023/09/15 00:50:41;;;;;;;9.27;5.30;;;;;;;;;;5002919;28;20143;-67
2023/09/15 00:53:19;;;;;;;9.50;4.70;;;;;;;;;;4989258;28;20101;-67
2023/09/15 00:55:46;;;;;;;7.05;5.18;;;;;;;;;;4984565;28;20038;-67
2023/09/15 00:58:12;;;;;;;7.40;4.95;;;;;;;;;;4993393;28;20778;-67
2023/09/15 01:00:44;;;;;;;6.32;4.60;;;;;;;;;;4990653;28;20041;-67
2023/09/15 01:03:15;;;;;;;7.53;5.00;;;;;;;;;;5001791;28;20083;-67
2023/09/15 01:05:42;;;;;;;9.00;5.50;;;;;;;;;;4989210;28;20026;-67
2023/09/15 01:08:08;;;;;;;9.13;5.57;;;;;;;;;;4995996;28;20018;-67
2023/09/15 01:10:33;;;;;;;6.90;4.82;;;;;;;;;;4991029;28;20034;-67
2023/09/15 01:12:59;;;;;;;8.68;5.50;;;;;;;;;;4992881;28;20043;-67
2023/09/15 01:15:50;;;;;;;8.52;5.00;;;;;;;;;;4987389;28;20598;-67
2023/09/15 01:18:16;;;;;;;11.55;5.28;;;;;;;;;;4970526;28;20604;-67
2023/09/15 01:21:19;;;;;;;9.88;5.07;;;;;;;;;;4982823;28;20097;-67
2023/09/15 01:24:26;;;;;;;10.27;4.90;;;;;;;;;;4977342;28;20079;-67
2023/09/15 01:27:22;;;;;;;8.18;5.03;;;;;;;;;;4987815;28;20026;-67
2023/09/15 01:29:53;;;;;;;9.10;5.20;;;;;;;;;;4989117;28;20493;-67
2023/09/15 01:32:19;;;;;;;10.00;5.80;;;;;;;;;;4997312;28;20327;-67
2023/09/15 01:34:48;;;;;;;8.75;5.10;;;;;;;;;;4995206;28;20050;-67
2023/09/15 01:37:13;;;;;;;9.70;5.22;;;;;;;;;;4989499;28;20407;-67
2023/09/15 01:39:38;;;;;;;10.30;5.47;;;;;;;;;;4992825;28;20069;-67
2023/09/15 01:42:04;;;;;;;9.85;5.60;;;;;;;;;;4996280;28;20054;-67
2023/09/15 01:44:30;;;;;;;10.93;5.57;;;;;;;;;;4996686;28;20033;-67
2023/09/15 01:46:55;;;;;;;10.95;6.15;;;;;;;;;;4989152;28;20066;-67
2023/09/15 01:49:22;;;;;;;8.98;5.78;;;;;;;;;;4992186;28;20060;-67
2023/09/15 01:51:48;;;;;;;10.07;6.10;;;;;;;;;;4996976;28;20034;-66
2023/09/15 01:54:15;;;;;;;10.45;6.22;;;;;;;;;;4999588;28;20101;-67
2023/09/15 01:56:41;;;;;;;10.40;5.57;;;;;;;;;;4992298;28;20036;-67
2023/09/15 01:59:06;;;;;;;12.93;5.57;;;;;;;;;;5003681;28;20042;-67
2023/09/15 02:01:32;;;;;;;8.98;5.53;;;;;;;;;;4999987;28;20273;-67
2023/09/15 02:03:57;;;;;;;10.00;5.55;;;;;;;;;;4994537;28;20570;-67
2023/09/15 02:06:22;;;;;;;8.65;5.85;;;;;;;;;;4992887;28;20041;-67
2023/09/15 02:08:48;;;;;;;8.07;5.13;;;;;;;;;;4997901;28;20022;-67
2023/09/15 02:11:14;;;;;;;8.75;5.25;;;;;;;;;;5000968;28;20023;-67
2023/09/15 02:13:43;;;;;;;8.88;5.55;;;;;;;;;;5002933;28;20069;-67
2023/09/15 02:16:08;;;;;;;8.60;5.00;;;;;;;;;;5000471;28;20050;-67
2023/09/15 02:18:33;;;;;;;10.65;5.43;;;;;;;;;;4997459;28;20412;-67
2023/09/15 02:21:00;;;;;;;10.60;5.53;;;;;;;;;;4994217;28;20041;-67
2023/09/15 02:23:25;;;;;;;9.55;6.03;;;;;;;;;;4996116;28;20032;-67
2023/09/15 02:25:51;;;;;;;10.90;5.57;;;;;;;;;;5000743;28;20137;-67
2023/09/15 02:28:20;;;;;;;10.88;5.40;;;;;;;;;;4999960;28;20035;-67
2023/09/15 02:30:46;;;;;;;7.63;5.35;;;;;;;;;;4988261;28;20049;-67
2023/09/15 02:33:12;;;;;;;10.02;5.85;;;;;;;;;;4978186;28;20607;-67
2023/09/15 02:35:37;;;;;;;9.00;5.60;;;;;;;;;;4992112;28;20034;-67
2023/09/15 02:38:03;;;;;;;9.10;5.18;;;;;;;;;;5003464;28;20047;-67
2023/09/15 02:40:30;;;;;;;10.57;5.78;;;;;;;;;;4993540;28;20088;-67
2023/09/15 02:42:55;;;;;;;11.57;6.25;;;;;;;;;;4998658;28;20475;-67
2023/09/15 02:45:20;;;;;;;12.32;6.57;;;;;;;;;;4999996;28;20037;-67
2023/09/15 02:47:46;;;;;;;10.35;5.80;;;;;;;;;;4991084;28;20026;-67
2023/09/15 02:50:11;;;;;;;9.15;6.10;;;;;;;;;;4997181;28;20025;-67
2023/09/15 02:52:37;;;;;;;11.20;5.72;;;;;;;;;;4990389;28;20868;-67
2023/09/15 02:55:04;;;;;;;8.27;5.53;;;;;;;;;;4976209;28;20026;-67
2023/09/15 02:57:31;;;;;;;9.52;5.35;;;;;;;;;;4972647;28;20092;-67
2023/09/15 02:59:56;;;;;;;9.57;5.50;;;;;;;;;;4997816;28;20112;-67
2023/09/15 03:02:22;;;;;;;10.30;5.78;;;;;;;;;;4995940;28;20475;-67
2023/09/15 03:04:48;;;;;;;9.88;5.13;;;;;;;;;;4995018;28;20117;-67
2023/09/15 03:07:14;;;;;;;10.02;6.10;;;;;;;;;;4994677;28;20030;-67
2023/09/15 03:09:39;;;;;;;8.88;5.70;;;;;;;;;;4993292;28;20038;-67
2023/09/15 03:12:05;;;;;;;9.52;5.63;;;;;;;;;;5005070;28;20100;-67
2023/09/15 03:14:34;;;;;;;12.57;6.32;;;;;;;;;;4994510;28;20581;-67
2023/09/15 03:16:59;;;;;;;13.32;6.97;;;;;;;;;;4995108;28;20049;-67
2023/09/15 03:19:25;;;;;;;10.68;6.47;;;;;;;;;;4999401;28;20039;-67
2023/09/15 03:21:50;;;;;;;11.80;6.38;;;;;;;;;;4998468;28;21035;-67
2023/09/15 03:24:16;;;;;;;10.90;6.47;;;;;;;;;;4997044;28;20030;-66
2023/09/15 03:26:42;;;;;;;11.68;5.85;;;;;;;;;;4998190;28;20026;-67
2023/09/15 03:29:07;;;;;;;10.38;6.07;;;;;;;;;;4999564;28;20380;-67
2023/09/15 03:31:33;;;;;;;11.90;5.75;;;;;;;;;;4999655;28;20095;-67
2023/09/15 03:33:59;;;;;;;11.25;6.13;;;;;;;;;;4977603;28;20031;-67
2023/09/15 03:36:26;;;;;;;9.75;5.70;;;;;;;;;;4994035;28;20038;-67
2023/09/15 03:38:52;;;;;;;10.73;6.10;;;;;;;;;;4998962;28;20022;-67
2023/09/15 03:41:17;;;;;;;10.18;5.53;;;;;;;;;;4994826;28;20085;-67
2023/09/15 03:43:43;;;;;;;9.70;5.38;;;;;;;;;;4999077;28;20080;-67
2023/09/15 03:46:08;;;;;;;14.00;5.97;;;;;;;;;;4995203;28;20049;-67
2023/09/15 03:48:34;;;;;;;10.20;5.70;;;;;;;;;;4992632;28;20030;-67
2023/09/15 03:50:59;;;;;;;10.25;5.78;;;;;;;;;;4995881;28;20065;-67
2023/09/15 03:53:25;;;;;;;11.93;5.85;;;;;;;;;;4997926;28;20626;-67
2023/09/15 03:55:51;;;;;;;11.20;6.00;;;;;;;;;;4995497;28;20048;-67
2023/09/15 03:58:17;;;;;;;10.13;6.07;;;;;;;;;;4989056;28;20058;-66
2023/09/15 04:00:43;;;;;;;6.80;4.68;;;;;;;;;;4997737;28;20645;-67
2023/09/15 04:03:08;;;;;;;10.80;5.78;;;;;;;;;;4990110;28;20040;-67
2023/09/15 04:05:34;;;;;;;11.05;5.63;;;;;;;;;;4997354;28;20041;-67
2023/09/15 04:07:59;;;;;;;10.65;5.60;;;;;;;;;;4986085;28;20040;-67
2023/09/15 04:10:25;;;;;;;11.60;5.70;;;;;;;;;;4983110;28;20037;-67
2023/09/15 04:12:50;;;;;;;9.60;5.28;;;;;;;;;;4998524;28;20066;-67
2023/09/15 04:15:16;;;;;;;9.65;5.63;;;;;;;;;;4996325;28;20045;-67
2023/09/15 04:17:42;;;;;;;10.18;5.80;;;;;;;;;;4991701;28;20034;-66
2023/09/15 04:20:09;;;;;;;10.40;6.10;;;;;;;;;;4994446;28;20403;-67
2023/09/15 04:22:41;;;;;;;10.00;5.97;;;;;;;;;;4998018;28;20065;-67
2023/09/15 04:25:08;;;;;;;9.57;5.82;;;;;;;;;;4997952;28;20579;-67
2023/09/15 04:27:34;;;;;;;9.85;5.72;;;;;;;;;;4991933;28;20052;-67
2023/09/15 04:30:01;;;;;;;10.85;5.10;;;;;;;;;;4992107;28;20038;-67
2023/09/15 04:32:26;;;;;;;10.65;5.13;;;;;;;;;;4998610;28;20026;-67
2023/09/15 04:34:53;;;;;;;10.30;5.28;;;;;;;;;;4997938;28;20088;-67
2023/09/15 04:37:22;;;;;;;10.07;5.57;;;;;;;;;;4992926;28;20041;-67
2023/09/15 04:39:51;;;;;;;10.23;5.43;;;;;;;;;;4989828;28;20062;-67
2023/09/15 04:42:17;;;;;;;8.90;5.35;;;;;;;;;;4997814;28;20121;-67
2023/09/15 04:44:42;;;;;;;13.50;5.60;;;;;;;;;;4995611;28;20658;-67
2023/09/15 04:47:08;;;;;;;10.40;5.65;;;;;;;;;;4992521;28;20026;-67
2023/09/15 04:49:33;;;;;;;10.20;5.22;;;;;;;;;;4995857;28;20038;-66
2023/09/15 04:51:59;;;;;;;9.40;5.20;;;;;;;;;;5002949;28;20049;-67
2023/09/15 04:54:25;;;;;;;12.13;5.78;;;;;;;;;;4998847;28;20044;-67
2023/09/15 04:56:51;;;;;;;9.23;5.00;;;;;;;;;;4987911;28;20065;-67
2023/09/15 04:59:16;;;;;;;12.48;5.82;;;;;;;;;;4996250;28;20070;-67
2023/09/15 05:01:43;;;;;;;11.50;4.80;;;;;;;;;;4991779;28;20065;-67
2023/09/15 05:04:09;;;;;;;9.13;5.10;;;;;;;;;;4993425;28;20042;-67
2023/09/15 05:06:34;;;;;;;9.05;5.13;;;;;;;;;;4975361;28;20479;-67
2023/09/15 05:08:59;;;;;;;15.43;4.60;;;;;;;;;;5001058;28;20044;-67
2023/09/15 05:11:25;;;;;;;10.23;5.18;;;;;;;;;;4991283;28;20034;-67
2023/09/15 05:13:50;;;;;;;7.22;4.35;;;;;;;;;;4992733;28;20040;-67
2023/09/15 05:16:17;;;;;;;9.18;4.68;;;;;;;;;;4997901;28;20538;-67
2023/09/15 05:18:42;;;;;;;8.35;4.80;;;;;;;;;;4997167;28;20059;-67
2023/09/15 05:21:08;;;;;;;7.57;4.97;;;;;;;;;;4991161;28;20772;-67
2023/09/15 05:23:33;;;;;;;7.68;4.47;;;;;;;;;;4990115;28;20844;-67
2023/09/15 05:25:59;;;;;;;9.18;5.13;;;;;;;;;;4996148;28;20030;-67
2023/09/15 05:28:24;;;;;;;9.10;5.25;;;;;;;;;;4979438;28;20034;-67
2023/09/15 05:30:49;;;;;;;9.45;4.55;;;;;;;;;;4992977;28;20536;-67
2023/09/15 05:33:16;;;;;;;8.27;4.30;;;;;;;;;;4997833;28;20445;-67
2023/09/15 05:35:41;;;;;;;13.65;4.82;;;;;;;;;;4986492;28;20030;-67
2023/09/15 05:38:07;;;;;;;10.50;5.30;;;;;;;;;;4997707;28;20052;-67
2023/09/15 05:40:33;;;;;;;12.20;4.47;;;;;;;;;;4987331;28;20148;-67
2023/09/15 05:42:58;;;;;;;9.57;4.57;;;;;;;;;;4997818;28;20436;-67
2023/09/15 05:45:24;;;;;;;10.55;5.35;;;;;;;;;;4992952;28;20599;-67
2023/09/15 05:47:49;;;;;;;10.63;4.38;;;;;;;;;;4997988;28;20411;-67
2023/09/15 05:50:15;;;;;;;8.52;3.92;;;;;;;;;;5001582;28;20037;-67
2023/09/15 05:52:41;;;;;;;9.15;4.65;;;;;;;;;;4996567;28;20058;-67
2023/09/15 05:55:06;;;;;;;11.52;4.80;;;;;;;;;;5001021;28;20042;-67
2023/09/15 05:57:32;;;;;;;9.35;4.60;;;;;;;;;;4989374;28;20046;-67
2023/09/15 05:59:57;;;;;;;9.60;4.88;;;;;;;;;;5000225;28;20038;-67
2023/09/15 06:02:23;;;;;;;11.70;4.70;;;;;;;;;;5003566;28;20478;-67
2023/09/15 06:04:50;;;;;;;10.20;4.40;;;;;;;;;;5000601;28;20109;-67
2023/09/15 06:07:17;;;;;;;8.73;4.93;;;;;;;;;;4998612;28;20034;-67
2023/09/15 06:09:43;;;;;;;11.25;4.82;;;;;;;;;;5000764;28;20046;-67
2023/09/15 06:12:08;;;;;;;12.05;4.78;;;;;;;;;;4999559;28;20037;-67
2023/09/15 06:14:35;;;;;;;11.57;5.10;;;;;;;;;;4993808;28;20095;-67
2023/09/15 06:17:02;;;;;;;9.55;4.80;;;;;;;;;;4999902;28;20026;-67
2023/09/15 06:19:28;;;;;;;12.38;5.22;;;;;;;;;;5004340;28;20042;-67
2023/09/15 06:21:53;;;;;;;12.02;5.18;;;;;;;;;;4999858;28;20037;-67
2023/09/15 06:24:19;;;;;;;11.65;4.93;;;;;;;;;;4993989;28;20041;-67
2023/09/15 06:26:44;;;;;;;22.10;5.05;;;;;;;;;;4995008;28;20049;-67
2023/09/15 06:29:12;;;;;;;10.75;4.88;;;;;;;;;;4997009;28;20510;-67
2023/09/15 06:31:37;;;;;;;12.90;5.25;;;;;;;;;;5000330;28;20045;-67
2023/09/15 06:34:03;;;;;;;12.93;5.57;;;;;;;;;;5000289;28;20582;-67
2023/09/15 06:36:28;;;;;;;10.88;5.07;;;;;;;;;;4987553;28;20041;-67
2023/09/15 06:38:53;;;;;;;15.50;5.32;;;;;;;;;;4990000;28;20049;-67
2023/09/15 06:41:19;;;;;;;14.15;5.15;;;;;;;;;;4987196;28;20050;-67
2023/09/15 06:43:44;;;;;;;11.00;5.18;;;;;;;;;;5000549;28;20034;-67
2023/09/15 06:46:10;;;;;;;11.20;5.18;;;;;;;;;;4991570;28;20133;-67
2023/09/15 06:48:36;;;;;;;11.35;4.88;;;;;;;;;;4990479;28;20060;-67
2023/09/15 06:51:01;;;;;;;9.25;4.78;;;;;;;;;;4997107;28;20053;-67
2023/09/15 06:53:26;;;;;;;10.32;4.95;;;;;;;;;;4998120;28;20084;-67
2023/09/15 06:55:55;;;;;;;12.23;4.93;;;;;;;;;;4996306;28;20038;-67
2023/09/15 06:58:23;;;;;;;9.65;4.68;;;;;;;;;;4974388;28;20089;-67
2023/09/15 07:00:48;;;;;;;11.10;4.70;;;;;;;;;;4976553;28;20064;-67
2023/09/15 07:03:13;;;;;;;15.25;4.57;;;;;;;;;;4979020;28;20049;-67
2023/09/15 07:05:39;;;;;;;9.50;5.20;;;;;;;;;;4995702;28;20030;-67
2023/09/15 07:08:05;;;;;;;12.23;4.38;;;;;;;;;;4987280;28;20650;-67
2023/09/15 07:10:30;;;;;;;10.73;4.40;;;;;;;;;;4975020;28;20530;-67
2023/09/15 07:12:55;;;;;;;7.60;4.20;;;;;;;;;;4976061;28;20135;-67
2023/09/15 07:15:21;;;;;;;8.38;4.43;;;;;;;;;;4978345;28;20494;-67
2023/09/15 07:17:46;;;;;;;12.32;4.50;;;;;;;;;;4973054;28;20288;-67
2023/09/15 07:20:11;;;;;;;8.93;4.30;;;;;;;;;;4970692;28;20120;-68
2023/09/15 07:22:37;;;;;;;7.10;4.30;;;;;;;;;;4966730;28;20046;-67
2023/09/15 07:25:02;;;;;;;7.35;4.43;;;;;;;;;;4966299;28;20074;-67
2023/09/15 07:27:28;;;;;;;8.30;3.90;;;;;;;;;;4974233;28;20459;-68
2023/09/15 07:29:53;;;;;;;8.10;4.68;;;;;;;;;;4977785;28;20053;-67
2023/09/15 07:32:19;;;;;;;8.80;4.68;;;;;;;;;;4975587;28;20022;-68
2023/09/15 07:34:44;;;;;;;8.52;4.90;;;;;;;;;;4980581;28;20467;-67
2023/09/15 07:37:10;;;;;;;9.88;4.35;;;;;;;;;;4977733;28;20051;-67
2023/09/15 07:39:35;;;;;;;6.25;4.05;;;;;;;;;;4979698;28;20099;-67
2023/09/15 07:42:01;;;;;;;7.43;4.15;;;;;;;;;;4979333;28;20034;-67
2023/09/15 07:44:26;;;;;;;7.75;3.80;;;;;;;;;;4978777;28;20026;-67
2023/09/15 07:46:52;;;;;;;7.97;3.65;;;;;;;;;;4974312;28;20027;-67
2023/09/15 07:49:18;;;;;;;7.97;3.38;;;;;;;;;;4977610;28;20700;-67
2023/09/15 07:51:44;;;;;;;7.75;3.53;;;;;;;;;;4977798;28;20057;-67
2023/09/15 07:54:09;;;;;;;6.15;3.40;;;;;;;;;;4992412;28;20041;-67
2023/09/15 07:56:36;;;;;;;7.55;3.45;;;;;;;;;;4992865;28;20025;-67
2023/09/15 07:59:03;;;;;;;7.68;3.65;;;;;;;;;;4993964;28;20026;-67
2023/09/15 08:01:28;;;;;;;7.75;3.40;;;;;;;;;;4991147;28;20597;-67
2023/09/15 08:03:54;;;;;;;5.18;3.30;;;;;;;;;;4987733;28;20030;-67
2023/09/15 08:06:19;;;;;;;7.78;3.50;;;;;;;;;;4990409;28;20382;-68
2023/09/15 08:08:44;;;;;;;11.43;3.53;;;;;;;;;;4994530;28;20037;-67
2023/09/15 08:11:10;;;;;;;7.32;3.53;;;;;;;;;;4979859;28;20085;-67
2023/09/15 08:13:35;;;;;;;9.32;4.22;;;;;;;;;;4998351;28;20033;-67
2023/09/15 08:16:01;;;;;;;7.35;3.40;;;;;;;;;;4975256;28;20045;-67
2023/09/15 08:18:26;;;;;;;7.30;3.90;;;;;;;;;;4979255;28;20073;-67
2023/09/15 08:20:52;;;;;;;6.13;3.30;;;;;;;;;;4976218;28;20018;-67
2023/09/15 08:23:17;;;;;;;9.38;3.80;;;;;;;;;;4976382;28;20396;-67
2023/09/15 08:25:43;;;;;;;7.45;3.83;;;;;;;;;;4976202;28;20042;-67
2023/09/15 08:28:09;;;;;;;9.38;4.35;;;;;;;;;;4976281;28;20038;-67
2023/09/15 08:30:35;;;;;;;8.90;3.33;;;;;;;;;;4977684;28;20038;-68
2023/09/15 08:33:02;;;;;;;9.88;3.17;;;;;;;;;;4981027;28;20147;-67
2023/09/15 08:35:28;;;;;;;7.97;3.83;;;;;;;;;;4985323;28;20113;-67
2023/09/15 08:37:54;;;;;;;6.13;3.50;;;;;;;;;;4989270;28;20427;-68
2023/09/15 08:40:19;;;;;;;6.85;4.10;;;;;;;;;;4984756;28;20512;-68
2023/09/15 08:42:45;;;;;;;6.57;3.90;;;;;;;;;;4996465;28;20193;-67
2023/09/15 08:45:11;;;;;;;4.18;3.03;;;;;;;;;;4997197;28;20053;-67
2023/09/15 08:47:42;;;;;;;6.03;3.40;;;;;;;;;;4987272;28;20034;-67
2023/09/15 08:50:08;;;;;;;7.57;3.30;;;;;;;;;;4993969;28;20037;-68
2023/09/15 08:52:35;;;;;;;4.90;3.25;;;;;;;;;;4993071;28;20271;-67
2023/09/15 08:55:02;;;;;;;6.38;3.55;;;;;;;;;;4995063;28;20062;-69
2023/09/15 08:57:29;;;;;;;5.43;3.35;;;;;;;;;;4983945;28;20042;-67
2023/09/15 08:59:55;;;;;;;5.57;3.40;;;;;;;;;;4987439;28;21226;-67
2023/09/15 09:02:23;;;;;;;6.30;3.30;;;;;;;;;;4962959;28;20026;-67
2023/09/15 09:04:49;;;;;;;4.72;2.92;;;;;;;;;;4978734;28;20053;-67
2023/09/15 09:07:15;;;;;;;6.47;3.10;;;;;;;;;;4979747;28;20043;-67
2023/09/15 09:09:42;;;;;;;5.20;3.20;;;;;;;;;;4987929;28;20042;-66
2023/09/15 09:12:08;;;;;;;5.15;3.30;;;;;;;;;;4995945;28;20039;-67
2023/09/15 09:14:34;;;;;;;6.53;3.05;;;;;;;;;;4997184;28;20077;-67
2023/09/15 09:17:01;;;;;;;5.95;3.10;;;;;;;;;;4987808;28;20033;-67
2023/09/15 09:19:42;;;;;;;6.63;3.03;;;;;;;;;;4996847;28;20137;-67
2023/09/15 09:22:08;;;;;;;7.18;3.30;;;;;;;;;;4997641;28;20104;-67
2023/09/15 09:24:37;;;;;;;5.97;3.50;;;;;;;;;;4999085;28;20069;-67
2023/09/15 09:27:10;;;;;;;8.90;3.60;;;;;;;;;;4995687;28;20044;-67
2023/09/15 09:29:35;;;;;;;11.13;3.60;;;;;;;;;;4984445;28;20038;-67
2023/09/15 09:32:00;;;;;;;6.95;3.40;;;;;;;;;;4984558;28;20053;-67
2023/09/15 09:34:26;;;;;;;9.52;3.85;;;;;;;;;;4978069;28;20046;-68
2023/09/15 09:36:52;;;;;;;6.43;3.67;;;;;;;;;;4979627;28;20070;-67
2023/09/15 09:39:18;;;;;;;9.73;4.10;;;;;;;;;;4992645;28;20741;-67
2023/09/15 09:41:44;;;;;;;7.35;3.67;;;;;;;;;;5012514;28;20040;-67
2023/09/15 09:44:12;;;;;;;6.85;4.00;;;;;;;;;;4991078;28;20026;-67
2023/09/15 09:46:39;;;;;;;11.43;3.80;;;;;;;;;;4986502;28;20050;-66
2023/09/15 09:49:06;;;;;;;8.80;3.70;;;;;;;;;;4976735;28;20591;-67
2023/09/15 09:51:32;;;;;;;5.28;3.13;;;;;;;;;;4975623;28;20048;-67
2023/09/15 09:53:57;;;;;;;7.28;3.13;;;;;;;;;;4991524;28;20046;-67
2023/09/15 09:56:23;;;;;;;6.93;3.42;;;;;;;;;;4991119;28;20022;-66
2023/09/15 09:58:49;;;;;;;6.53;3.28;;;;;;;;;;4989395;28;20092;-68
2023/09/15 10:01:14;;;;;;;5.40;2.53;;;;;;;;;;4991115;28;20700;-66
2023/09/15 10:03:40;;;;;;;5.93;2.80;;;;;;;;;;4994931;28;20042;-67
2023/09/15 10:06:07;;;;;;;5.97;2.88;;;;;;;;;;4997343;28;20080;-66
2023/09/15 10:08:33;;;;;;;6.22;3.10;;;;;;;;;;4992148;28;20109;-67
2023/09/15 10:10:59;;;;;;;8.00;3.15;;;;;;;;;;4990550;28;20185;-67
2023/09/15 10:13:24;;;;;;;6.47;3.25;;;;;;;;;;4995944;28;20591;-67
2023/09/15 10:15:51;;;;;;;5.40;2.67;;;;;;;;;;4997098;28;20050;-67
2023/09/15 10:18:19;;;;;;;6.53;2.90;;;;;;;;;;4990918;28;20111;-67
2023/09/15 10:20:49;;;;;;;6.18;2.72;;;;;;;;;;4996979;28;20030;-67
2023/09/15 10:23:15;;;;;;;8.20;2.97;;;;;;;;;;4994246;28;20025;-67
2023/09/15 10:25:43;;;;;;;7.10;3.20;;;;;;;;;;4996922;28;20050;-68
2023/09/15 10:28:11;;;;;;;6.40;2.97;;;;;;;;;;4997782;28;20053;-68
2023/09/15 10:30:38;;;;;;;5.28;2.40;;;;;;;;;;4981688;28;20837;-68
2023/09/15 10:33:06;;;;;;;7.78;3.33;;;;;;;;;;4974564;28;20042;-68
2023/09/15 10:35:32;;;;;;;5.18;2.80;;;;;;;;;;4981214;28;20136;-67
2023/09/15 10:38:02;;;;;;;6.68;2.50;;;;;;;;;;4987633;28;20076;-68
2023/09/15 10:40:43;;;;;;;5.50;2.70;;;;;;;;;;4985790;28;20062;-67
2023/09/15 10:43:08;;;;;;;8.88;3.70;;;;;;;;;;4998108;28;20046;-68
2023/09/15 10:45:34;;;;;;;7.75;2.90;;;;;;;;;;4992034;28;20064;-67
2023/09/15 10:48:00;;;;;;;4.00;2.53;;;;;;;;;;4993883;28;20113;-67
2023/09/15 10:50:33;;;;;;;4.13;2.33;;;;;;;;;;4996989;28;20033;-67
2023/09/15 10:53:09;;;;;;;11.30;3.10;;;;;;;;;;4977930;28;20735;-67
2023/09/15 10:55:35;;;;;;;5.43;2.80;;;;;;;;;;4980727;28;20681;-67
2023/09/15 10:58:01;;;;;;;6.10;2.75;;;;;;;;;;4990715;28;20038;-67
2023/09/15 11:00:28;;;;;;;4.78;3.00;;;;;;;;;;4997217;28;20048;-67
2023/09/15 11:02:53;;;;;;;4.35;2.63;;;;;;;;;;4977892;28;21126;-67
2023/09/15 11:05:19;;;;;;;4.55;2.95;;;;;;;;;;4986973;28;20489;-67
2023/09/15 11:07:46;;;;;;;5.57;2.80;;;;;;;;;;4983888;28;20074;-67
2023/09/15 11:10:11;;;;;;;6.32;2.70;;;;;;;;;;4981870;28;20075;-67
2023/09/15 11:12:37;;;;;;;3.88;2.50;;;;;;;;;;4986508;28;20038;-67
2023/09/15 11:15:03;;;;;;;5.13;2.75;;;;;;;;;;4996081;28;20038;-67
2023/09/15 11:17:31;;;;;;;4.50;2.53;;;;;;;;;;4995841;28;20477;-67
2023/09/15 11:19:59;;;;;;;9.48;2.72;;;;;;;;;;4994392;28;20026;-67
2023/09/15 11:22:25;;;;;;;5.13;2.95;;;;;;;;;;4983596;28;20038;-67
2023/09/15 11:24:51;;;;;;;4.88;2.78;;;;;;;;;;4993684;28;20594;-66
2023/09/15 11:27:17;;;;;;;4.05;2.85;;;;;;;;;;4987337;28;20038;-67
2023/09/15 11:29:42;;;;;;;5.05;2.65;;;;;;;;;;4992838;28;20026;-66
2023/09/15 11:32:08;;;;;;;6.47;2.72;;;;;;;;;;4997703;28;20073;-66
2023/09/15 11:34:33;;;;;;;9.88;3.20;;;;;;;;;;4994810;28;20081;-66
2023/09/15 11:37:00;;;;;;;5.57;3.00;;;;;;;;;;4988427;28;20515;-67
2023/09/15 11:39:26;;;;;;;5.85;2.70;;;;;;;;;;4979168;28;20427;-67
2023/09/15 11:41:54;;;;;;;4.28;2.90;;;;;;;;;;4974031;28;20034;-67
2023/09/15 11:44:21;;;;;;;7.05;3.10;;;;;;;;;;4990067;28;20097;-66
2023/09/15 11:46:49;;;;;;;8.07;2.72;;;;;;;;;;4989501;28;20045;-67
2023/09/15 11:49:16;;;;;;;6.18;3.10;;;;;;;;;;4992567;28;20038;-67
2023/09/15 11:51:42;;;;;;;5.95;3.22;;;;;;;;;;4990821;28;20107;-67
2023/09/15 11:54:07;;;;;;;4.78;2.95;;;;;;;;;;4996643;28;20084;-66
2023/09/15 11:56:35;;;;;;;5.47;3.08;;;;;;;;;;4989162;28;20034;-67
2023/09/15 11:59:01;;;;;;;6.00;2.80;;;;;;;;;;4993580;28;20115;-67
2023/09/15 12:01:28;;;;;;;5.07;2.50;;;;;;;;;;4995352;28;20038;-66
2023/09/15 12:03:54;;;;;;;4.93;2.47;;;;;;;;;;4978587;28;20519;-67
2023/09/15 12:06:20;;;;;;;3.55;2.40;;;;;;;;;;4980539;28;20840;-67
2023/09/15 12:08:50;;;;;;;3.38;2.33;;;;;;;;;;4977065;28;20459;-66
2023/09/15 12:11:16;;;;;;;4.28;2.70;;;;;;;;;;4971593;28;20036;-67
2023/09/15 12:13:42;;;;;;;5.60;3.17;;;;;;;;;;4972913;28;20038;-67
2023/09/15 12:16:16;;;;;;;2.90;2.45;;;;;;;;;;4981231;28;20455;-67
2023/09/15 12:18:44;;;;;;;2.95;2.30;;;;;;;;;;4985875;28;20476;-67
2023/09/15 12:21:14;;;;;;;4.35;2.10;;;;;;;;;;4979401;28;20054;-66
2023/09/15 12:23:40;;;;;;;5.28;2.40;;;;;;;;;;4973868;28;20026;-66
2023/09/15 12:26:05;;;;;;;4.55;2.40;;;;;;;;;;4981432;28;20057;-67
2023/09/15 12:28:32;;;;;;;4.32;2.28;;;;;;;;;;4996455;28;20404;-67
2023/09/15 12:30:58;;;;;;;5.28;2.55;;;;;;;;;;4991183;28;20046;-67
2023/09/15 12:33:26;;;;;;;3.63;2.47;;;;;;;;;;4990241;28;20042;-67
2023/09/15 12:35:51;;;;;;;4.20;2.33;;;;;;;;;;4994864;28;20030;-67
2023/09/15 12:38:19;;;;;;;4.63;2.30;;;;;;;;;;4996055;28;20037;-67
2023/09/15 12:40:47;;;;;;;4.55;2.50;;;;;;;;;;4987187;28;20054;-67
2023/09/15 12:43:13;;;;;;;3.53;2.05;;;;;;;;;;4991573;28;20042;-68
2023/09/15 12:45:39;;;;;;;4.22;2.25;;;;;;;;;;4997948;28;20035;-67
2023/09/15 12:48:04;;;;;;;5.80;2.40;;;;;;;;;;4993967;28;20130;-68
2023/09/15 12:50:30;;;;;;;2.50;1.98;;;;;;;;;;4989621;28;20076;-67
2023/09/15 12:52:56;;;;;;;2.75;2.10;;;;;;;;;;4978459;28;20132;-66
2023/09/15 12:55:22;;;;;;;4.38;2.55;;;;;;;;;;4977262;28;20527;-69
2023/09/15 12:57:48;;;;;;;3.42;2.50;;;;;;;;;;4983176;28;20094;-67
2023/09/15 13:00:14;;;;;;;3.95;1.98;;;;;;;;;;4991797;28;20181;-69
2023/09/15 13:02:40;;;;;;;3.10;1.90;;;;;;;;;;4972394;28;20030;-68
2023/09/15 13:05:07;;;;;;;3.33;1.90;;;;;;;;;;4974708;28;20027;-68
2023/09/15 13:07:33;;;;;;;3.97;2.10;;;;;;;;;;4975053;28;20061;-69
2023/09/15 13:09:59;;;;;;;2.78;2.28;;;;;;;;;;4979939;28;20053;-68
2023/09/15 13:12:24;;;;;;;6.30;2.08;;;;;;;;;;4982008;28;20042;-68
2023/09/15 13:14:49;;;;;;;4.88;2.40;;;;;;;;;;4995991;28;20030;-69
2023/09/15 13:17:15;;;;;;;3.75;2.13;;;;;;;;;;4996328;28;20026;-68
2023/09/15 13:19:40;;;;;;;2.58;1.90;;;;;;;;;;4997883;28;20039;-68
2023/09/15 13:22:06;;;;;;;3.15;2.17;;;;;;;;;;4998607;28;20539;-67
2023/09/15 13:24:31;;;;;;;3.42;2.17;;;;;;;;;;4996119;28;20038;-67
2023/09/15 13:26:57;;;;;;;4.75;2.10;;;;;;;;;;4997147;28;20802;-67
2023/09/15 13:29:25;;;;;;;3.33;2.35;;;;;;;;;;5000979;28;20117;-68
2023/09/15 13:31:50;;;;;;;2.60;2.03;;;;;;;;;;4995209;28;20050;-68
2023/09/15 13:34:16;;;;;;;7.53;2.08;;;;;;;;;;4995501;28;20038;-67
2023/09/15 13:36:41;;;;;;;3.70;2.10;;;;;;;;;;4995902;28;20050;-68
2023/09/15 13:39:07;;;;;;;4.00;2.08;;;;;;;;;;4987695;28;20034;-67
2023/09/15 13:41:34;;;;;;;3.97;1.92;;;;;;;;;;4993618;28;20057;-68
2023/09/15 13:43:59;;;;;;;5.25;2.30;;;;;;;;;;4987848;28;20053;-68
2023/09/15 13:46:24;;;;;;;2.63;1.98;;;;;;;;;;5002424;28;20112;-68
2023/09/15 13:48:50;;;;;;;3.17;2.35;;;;;;;;;;4988399;28;20124;-68
2023/09/15 13:51:15;;;;;;;3.25;2.20;;;;;;;;;;4991375;28;20412;-67
2023/09/15 13:53:41;;;;;;;3.85;1.90;;;;;;;;;;4994925;28;20193;-68
2023/09/15 13:56:06;;;;;;;2.47;2.00;;;;;;;;;;4989135;28;20026;-68
2023/09/15 13:58:38;;;;;;;3.38;1.98;;;;;;;;;;4983262;28;20774;-67
2023/09/15 14:01:04;;;;;;;2.53;1.93;;;;;;;;;;4994100;28;20041;-67
2023/09/15 14:03:29;;;;;;;3.15;1.85;;;;;;;;;;4993223;28;20277;-68
2023/09/15 14:05:55;;;;;;;4.35;2.03;;;;;;;;;;4990039;28;20045;-67
2023/09/15 14:08:21;;;;;;;3.05;2.10;;;;;;;;;;4998926;28;20562;-67
2023/09/15 14:10:46;;;;;;;3.83;2.33;;;;;;;;;;4991545;28;20037;-68
2023/09/15 14:13:15;;;;;;;2.75;2.08;;;;;;;;;;4996238;28;20042;-69
2023/09/15 14:15:42;;;;;;;2.70;2.10;;;;;;;;;;4992398;28;20042;-69
2023/09/15 14:18:07;;;;;;;4.32;1.95;;;;;;;;;;4988920;28;20041;-69
2023/09/15 14:20:33;;;;;;;3.33;2.08;;;;;;;;;;4998390;28;20021;-70
2023/09/15 14:22:58;;;;;;;3.85;2.30;;;;;;;;;;4994030;28;20128;-68
2023/09/15 14:25:24;;;;;;;3.47;1.98;;;;;;;;;;4994965;28;20046;-68
2023/09/15 14:27:49;;;;;;;2.53;2.00;;;;;;;;;;4999044;28;20527;-68
2023/09/15 14:30:14;;;;;;;3.42;2.28;;;;;;;;;;5000391;28;20042;-67
2023/09/15 14:32:40;;;;;;;4.03;2.30;;;;;;;;;;4996547;28;20033;-68
2023/09/15 14:35:05;;;;;;;4.20;2.42;;;;;;;;;;4994658;28;20117;-68